Terminal Aerodrome Forecast
Issued by NWS

Home | Current Version | Previous Version | Text Only | Print | Product List | Glossary Off
Versions: 1 2 3 4 5 6 7 8 9 10 11 12 13 14 15 16 17 18 19 20 21 22 23 24 25

000
FTUS43 KABR 281356 AAB
TAFATY
TAF AMD
KATY 281356Z 2814/2912 03005KT 2SM -SN BR VCSH OVC014
     FM281700 05012KT P6SM VCSH OVC015
     FM290600 VRB03KT P6SM OVC015=

USA.gov is the U.S. government's official web portal to all federal, state and local government web resources and services.